Time;durP1;ratioP1;P1;durP2;ratioP2;P2;SDS_P1;SDS_P2;PMS_P1;PMS_P2;Temp;Humidity;BMP_temperature;BMP_pressure;BME280_temperature;BME280_humidity;BME280_pressure;Samples;Min_cycle;Max_cycle;Signal;HPM_P1;HPM_P2
2022/12/08 00:02:06;;;;;;;3.77;1.83;;;;;;;;;;1765135;79;20967;-47
2022/12/08 00:09:20;;;;;;;2.90;1.83;;;;;;;;;;1762873;79;21425;-47
2022/12/08 00:09:45;;;;;;;3.02;2.15;;;;;;;;;;1762588;79;27728;-46
2022/12/08 00:12:14;;;;;;;3.97;1.63;;;;;;;;;;1765222;79;21025;-47
2022/12/08 00:14:42;;;;;;;5.23;2.20;;;;;;;;;;1758626;79;21517;-48
2022/12/08 00:17:09;;;;;;;2.93;1.80;;;;;;;;;;1763488;79;21341;-45
2022/12/08 00:19:35;;;;;;;1.73;1.50;;;;;;;;;;1759432;80;21905;-45
2022/12/08 00:22:02;;;;;;;4.53;1.60;;;;;;;;;;1762869;79;21447;-46
2022/12/08 00:24:30;;;;;;;2.47;1.53;;;;;;;;;;1753797;80;21034;-46
2022/12/08 00:26:56;;;;;;;2.53;1.63;;;;;;;;;;1765166;80;21029;-46
2022/12/08 00:29:22;;;;;;;3.10;2.13;;;;;;;;;;1761823;79;21061;-47
2022/12/08 00:31:49;;;;;;;3.20;1.97;;;;;;;;;;1762785;80;22423;-45
2022/12/08 00:34:15;;;;;;;5.27;2.63;;;;;;;;;;1755442;80;21066;-47
2022/12/08 00:36:41;;;;;;;2.77;1.70;;;;;;;;;;1761816;80;21652;-46
2022/12/08 00:39:08;;;;;;;2.90;1.93;;;;;;;;;;1761638;79;21058;-45
2022/12/08 00:44:18;;;;;;;2.62;1.42;;;;;;;;;;1760708;80;21838;-44
2022/12/08 00:46:45;;;;;;;2.43;1.90;;;;;;;;;;1761223;79;21269;-45
2022/12/08 00:49:12;;;;;;;2.53;1.50;;;;;;;;;;1764233;79;21523;-45
2022/12/08 00:51:38;;;;;;;2.83;2.03;;;;;;;;;;1751185;79;21098;-44
2022/12/08 00:54:04;;;;;;;2.83;2.00;;;;;;;;;;1756455;79;21057;-45
2022/12/08 00:56:31;;;;;;;2.20;1.57;;;;;;;;;;1761101;79;21802;-44
2022/12/08 00:58:57;;;;;;;2.47;1.70;;;;;;;;;;1761758;79;22373;-45
2022/12/08 01:01:23;;;;;;;3.27;1.40;;;;;;;;;;1755980;79;21594;-45
2022/12/08 01:03:50;;;;;;;2.00;1.63;;;;;;;;;;1724290;82;21132;-48
2022/12/08 01:06:16;;;;;;;2.40;1.80;;;;;;;;;;1757306;79;21062;-47
2022/12/08 01:08:42;;;;;;;3.33;1.83;;;;;;;;;;1755411;80;21935;-46
2022/12/08 01:11:16;;;;;;;4.27;1.60;;;;;;;;;;1755026;79;21284;-47
2022/12/08 01:13:42;;;;;;;1.98;1.77;;;;;;;;;;1761107;80;21284;-46
2022/12/08 01:16:09;;;;;;;1.90;1.50;;;;;;;;;;1753400;79;22466;-45
2022/12/08 01:18:35;;;;;;;2.47;2.17;;;;;;;;;;1761898;79;21050;-44
2022/12/08 01:21:04;;;;;;;3.40;1.63;;;;;;;;;;1773175;79;21939;-44
2022/12/08 01:23:30;;;;;;;3.07;2.50;;;;;;;;;;1766147;79;21276;-45
2022/12/08 01:26:00;;;;;;;3.30;1.90;;;;;;;;;;1767604;79;21062;-46
2022/12/08 01:28:26;;;;;;;2.50;2.03;;;;;;;;;;1768602;80;21053;-44
2022/12/08 01:30:53;;;;;;;2.97;2.63;;;;;;;;;;1768912;80;21274;-45
2022/12/08 01:33:19;;;;;;;2.77;2.27;;;;;;;;;;1772120;80;21726;-44
2022/12/08 01:35:45;;;;;;;3.30;2.70;;;;;;;;;;1772069;79;21106;-45
2022/12/08 01:38:11;;;;;;;3.67;2.37;;;;;;;;;;1769475;79;21081;-47
2022/12/08 01:40:37;;;;;;;2.77;1.90;;;;;;;;;;1769728;79;21078;-44
2022/12/08 01:43:04;;;;;;;3.87;2.83;;;;;;;;;;1769810;79;21077;-44
2022/12/08 01:45:31;;;;;;;2.53;1.90;;;;;;;;;;1767912;79;21779;-45
2022/12/08 01:47:59;;;;;;;3.80;2.80;;;;;;;;;;1765655;79;21518;-46
2022/12/08 01:50:25;;;;;;;4.30;3.17;;;;;;;;;;1771312;79;21478;-48
2022/12/08 01:52:58;;;;;;;4.13;3.20;;;;;;;;;;1771552;79;21112;-45
2022/12/08 01:55:40;;;;;;;3.50;2.80;;;;;;;;;;1764049;79;21157;-46
2022/12/08 01:58:12;;;;;;;3.10;2.63;;;;;;;;;;1763069;79;21782;-45
2022/12/08 02:00:39;;;;;;;3.20;2.57;;;;;;;;;;1768855;79;21033;-46
2022/12/08 02:03:08;;;;;;;2.53;2.20;;;;;;;;;;1769290;79;21108;-46
2022/12/08 02:05:36;;;;;;;2.43;1.97;;;;;;;;;;1763780;79;21094;-47
2022/12/08 02:08:05;;;;;;;1.90;1.43;;;;;;;;;;1768254;79;21041;-47
2022/12/08 02:10:33;;;;;;;2.73;2.03;;;;;;;;;;1767324;79;21901;-47
2022/12/08 02:12:59;;;;;;;2.10;1.73;;;;;;;;;;1766267;79;21664;-47
2022/12/08 02:15:44;;;;;;;2.50;2.27;;;;;;;;;;1768612;79;21056;-46
2022/12/08 02:18:20;;;;;;;1.95;1.52;;;;;;;;;;1768887;80;21070;-45
2022/12/08 02:20:58;;;;;;;2.23;1.73;;;;;;;;;;1773646;79;21093;-47
2022/12/08 02:23:28;;;;;;;2.97;2.20;;;;;;;;;;1771552;79;22484;-47
2022/12/08 02:26:00;;;;;;;1.53;1.20;;;;;;;;;;1774436;79;21041;-46
2022/12/08 02:28:39;;;;;;;2.33;1.63;;;;;;;;;;1773107;79;20966;-47
2022/12/08 02:34:16;;;;;;;2.27;1.83;;;;;;;;;;1772334;78;27354;-46
2022/12/08 02:36:49;;;;;;;3.53;2.20;;;;;;;;;;1756834;80;21176;-46
2022/12/08 02:39:33;;;;;;;2.50;2.23;;;;;;;;;;1735186;80;21859;-45
2022/12/08 02:42:33;;;;;;;2.15;1.85;;;;;;;;;;1749717;80;21065;-46
2022/12/08 02:45:21;;;;;;;2.27;2.00;;;;;;;;;;1735962;80;21069;-47
2022/12/08 02:47:48;;;;;;;2.37;1.87;;;;;;;;;;1739189;80;21516;-45
2022/12/08 02:50:14;;;;;;;2.07;1.87;;;;;;;;;;1740345;80;21037;-45
2022/12/08 02:52:44;;;;;;;3.80;2.17;;;;;;;;;;1724016;80;23824;-46
2022/12/08 02:55:17;;;;;;;3.47;2.50;;;;;;;;;;1738073;80;21036;-46
2022/12/08 02:58:06;;;;;;;2.60;2.13;;;;;;;;;;1744672;80;21169;-46
2022/12/08 03:00:36;;;;;;;2.37;2.10;;;;;;;;;;1741751;80;21033;-47
2022/12/08 03:03:27;;;;;;;2.83;2.07;;;;;;;;;;1742171;80;21045;-47
2022/12/08 03:06:13;;;;;;;2.63;2.43;;;;;;;;;;1743530;80;21982;-47
2022/12/08 03:08:58;;;;;;;4.57;2.73;;;;;;;;;;1743549;80;21601;-47
2022/12/08 03:11:31;;;;;;;2.92;2.67;;;;;;;;;;1744518;80;21103;-47
2022/12/08 03:13:59;;;;;;;4.80;2.77;;;;;;;;;;1705076;81;22249;-47
2022/12/08 03:16:26;;;;;;;4.03;3.50;;;;;;;;;;1693109;82;21057;-47
2022/12/08 03:19:14;;;;;;;3.20;2.90;;;;;;;;;;1711862;81;21735;-47
2022/12/08 03:21:41;;;;;;;2.90;2.70;;;;;;;;;;1671230;82;21069;-47
2022/12/08 03:24:07;;;;;;;3.87;3.40;;;;;;;;;;1668010;84;21041;-47
2022/12/08 03:26:37;;;;;;;4.90;3.90;;;;;;;;;;1655855;84;22475;-47
2022/12/08 03:29:04;;;;;;;6.07;4.13;;;;;;;;;;1664633;84;21141;-47
2022/12/08 03:31:32;;;;;;;5.80;4.37;;;;;;;;;;1666628;84;22437;-48
2022/12/08 03:33:58;;;;;;;6.57;4.60;;;;;;;;;;1653407;84;21117;-47
2022/12/08 03:36:24;;;;;;;3.77;3.07;;;;;;;;;;1698715;82;21094;-48
2022/12/08 03:38:51;;;;;;;4.10;3.57;;;;;;;;;;1701062;82;21026;-48
2022/12/08 03:41:18;;;;;;;3.40;3.00;;;;;;;;;;1695793;82;21065;-48
2022/12/08 03:43:49;;;;;;;6.30;4.13;;;;;;;;;;1697960;82;22907;-47
2022/12/08 03:46:16;;;;;;;4.40;3.43;;;;;;;;;;1702231;82;21535;-47
2022/12/08 03:48:42;;;;;;;3.33;2.90;;;;;;;;;;1695027;82;21585;-47
2022/12/08 03:51:08;;;;;;;3.60;3.27;;;;;;;;;;1699332;82;21047;-47
2022/12/08 03:53:34;;;;;;;4.00;3.53;;;;;;;;;;1699493;82;21071;-47
2022/12/08 03:56:04;;;;;;;4.53;3.90;;;;;;;;;;1698462;82;21855;-47
2022/12/08 03:58:32;;;;;;;5.87;4.13;;;;;;;;;;1695695;82;20971;-47
2022/12/08 04:00:58;;;;;;;4.83;4.30;;;;;;;;;;1699623;82;20984;-47
2022/12/08 04:03:24;;;;;;;4.67;4.00;;;;;;;;;;1698973;82;21002;-47
2022/12/08 04:05:51;;;;;;;7.07;5.20;;;;;;;;;;1699313;82;21043;-48
2022/12/08 04:08:18;;;;;;;6.40;5.07;;;;;;;;;;1705170;82;22527;-48
2022/12/08 04:10:44;;;;;;;6.40;5.10;;;;;;;;;;1712585;82;21456;-47
2022/12/08 04:13:10;;;;;;;5.00;3.90;;;;;;;;;;1712973;82;20972;-48
2022/12/08 04:15:36;;;;;;;5.13;3.80;;;;;;;;;;1697862;82;20983;-47
2022/12/08 04:18:03;;;;;;;4.83;4.23;;;;;;;;;;1701409;82;21002;-48
2022/12/08 04:20:29;;;;;;;5.27;4.27;;;;;;;;;;1702492;82;21693;-48
2022/12/08 04:22:55;;;;;;;6.53;5.40;;;;;;;;;;1698736;82;20998;-47
2022/12/08 04:25:21;;;;;;;7.07;5.43;;;;;;;;;;1709009;82;20986;-48
2022/12/08 04:27:47;;;;;;;5.57;4.33;;;;;;;;;;1700002;82;21931;-48
2022/12/08 04:30:13;;;;;;;7.20;5.23;;;;;;;;;;1696312;82;21558;-47
2022/12/08 04:32:39;;;;;;;4.93;4.40;;;;;;;;;;1697029;82;21761;-48
2022/12/08 04:35:06;;;;;;;7.20;4.63;;;;;;;;;;1700411;82;21034;-48
2022/12/08 04:37:32;;;;;;;5.00;3.87;;;;;;;;;;1700323;82;21058;-48
2022/12/08 04:39:58;;;;;;;5.43;4.23;;;;;;;;;;1702121;82;21260;-48
2022/12/08 04:42:24;;;;;;;4.87;3.70;;;;;;;;;;1700166;82;21069;-48
2022/12/08 04:44:50;;;;;;;6.07;4.80;;;;;;;;;;1694900;82;22098;-49
2022/12/08 04:47:16;;;;;;;5.47;4.97;;;;;;;;;;1697895;82;21064;-48
2022/12/08 04:49:42;;;;;;;6.50;5.63;;;;;;;;;;1708294;82;21164;-48
2022/12/08 04:52:09;;;;;;;6.43;4.50;;;;;;;;;;1702470;82;21171;-48
2022/12/08 04:54:35;;;;;;;6.40;4.87;;;;;;;;;;1699611;82;21109;-48
2022/12/08 04:57:01;;;;;;;8.07;6.07;;;;;;;;;;1699563;82;21838;-47
2022/12/08 04:59:27;;;;;;;7.80;6.00;;;;;;;;;;1689394;82;21049;-48
2022/12/08 05:01:53;;;;;;;6.80;5.43;;;;;;;;;;1689779;82;21998;-48
2022/12/08 05:04:19;;;;;;;6.73;4.93;;;;;;;;;;1696700;82;21057;-48
2022/12/08 05:06:46;;;;;;;7.13;5.03;;;;;;;;;;1703579;82;21022;-48
2022/12/08 05:09:12;;;;;;;4.67;3.90;;;;;;;;;;1696518;82;22013;-48
2022/12/08 05:11:40;;;;;;;6.90;4.77;;;;;;;;;;1694788;82;22279;-48
2022/12/08 05:14:10;;;;;;;5.97;4.80;;;;;;;;;;1706145;82;21020;-48
2022/12/08 05:16:37;;;;;;;7.27;5.60;;;;;;;;;;1705840;82;21070;-48
2022/12/08 05:19:03;;;;;;;7.33;5.40;;;;;;;;;;1698228;82;21349;-48
2022/12/08 05:21:29;;;;;;;8.60;6.40;;;;;;;;;;1700458;82;21843;-48
2022/12/08 05:23:55;;;;;;;9.37;6.40;;;;;;;;;;1704226;82;21061;-48
2022/12/08 05:26:22;;;;;;;8.57;6.77;;;;;;;;;;1700308;82;21095;-48
2022/12/08 05:28:48;;;;;;;5.73;4.77;;;;;;;;;;1696171;82;21057;-48
2022/12/08 05:31:15;;;;;;;5.00;4.33;;;;;;;;;;1700155;82;21505;-48
2022/12/08 05:33:42;;;;;;;4.87;4.37;;;;;;;;;;1705189;81;21846;-48
2022/12/08 05:36:09;;;;;;;6.23;5.43;;;;;;;;;;1713902;81;21518;-48
2022/12/08 05:38:35;;;;;;;6.80;5.37;;;;;;;;;;1710995;81;21541;-48
2022/12/08 05:41:01;;;;;;;9.30;5.70;;;;;;;;;;1715640;81;21045;-48
2022/12/08 05:43:27;;;;;;;5.40;4.90;;;;;;;;;;1714068;81;21100;-48
2022/12/08 05:45:54;;;;;;;5.23;4.17;;;;;;;;;;1708267;81;23587;-48
2022/12/08 05:48:20;;;;;;;5.17;3.90;;;;;;;;;;1708880;81;21072;-48
2022/12/08 05:50:47;;;;;;;7.20;5.40;;;;;;;;;;1705622;81;21076;-48
2022/12/08 05:53:14;;;;;;;6.83;5.17;;;;;;;;;;1709067;81;21362;-48
2022/12/08 05:55:40;;;;;;;8.43;6.03;;;;;;;;;;1709367;81;21029;-48
2022/12/08 05:58:07;;;;;;;7.57;5.83;;;;;;;;;;1713138;81;22734;-48
2022/12/08 06:00:33;;;;;;;10.93;6.63;;;;;;;;;;1713975;81;21108;-48
2022/12/08 06:03:00;;;;;;;6.83;5.63;;;;;;;;;;1715804;81;21569;-48
2022/12/08 06:05:26;;;;;;;6.20;5.37;;;;;;;;;;1713367;81;21116;-48
2022/12/08 06:07:52;;;;;;;7.07;5.80;;;;;;;;;;1711496;81;21260;-48
2022/12/08 06:10:18;;;;;;;6.53;5.43;;;;;;;;;;1708955;81;21845;-48
2022/12/08 06:12:44;;;;;;;5.93;5.00;;;;;;;;;;1710847;81;21158;-48
2022/12/08 06:15:11;;;;;;;8.43;6.10;;;;;;;;;;1716192;81;21077;-48
2022/12/08 06:17:37;;;;;;;9.27;6.87;;;;;;;;;;1712885;81;21862;-48
2022/12/08 06:20:05;;;;;;;8.90;6.63;;;;;;;;;;1710710;81;21072;-48
2022/12/08 06:22:31;;;;;;;10.23;8.03;;;;;;;;;;1716123;81;22018;-48
2022/12/08 06:24:57;;;;;;;9.47;7.30;;;;;;;;;;1710790;81;21413;-48
2022/12/08 06:27:23;;;;;;;8.17;6.37;;;;;;;;;;1710849;81;21569;-48
2022/12/08 06:29:50;;;;;;;10.77;8.10;;;;;;;;;;1706179;81;21045;-48
2022/12/08 06:32:16;;;;;;;10.10;7.73;;;;;;;;;;1709065;81;21151;-48
2022/12/08 06:34:42;;;;;;;9.93;8.33;;;;;;;;;;1705495;81;21941;-48
2022/12/08 06:37:08;;;;;;;16.23;12.33;;;;;;;;;;1711722;81;21054;-48
2022/12/08 06:39:35;;;;;;;12.27;8.73;;;;;;;;;;1707224;81;21092;-48
2022/12/08 06:44:47;;;;;;;;;;;;;;;;;;1714317;81;21057;-48
2022/12/08 06:47:13;;;;;;;8.47;6.00;;;;;;;;;;1708787;81;27663;-48
2022/12/08 06:49:39;;;;;;;11.37;7.90;;;;;;;;;;1714735;81;21047;-48
2022/12/08 06:52:05;;;;;;;11.33;7.87;;;;;;;;;;1714648;81;22419;-48
2022/12/08 06:54:31;;;;;;;10.10;7.00;;;;;;;;;;1705216;81;21102;-48
2022/12/08 06:56:57;;;;;;;10.03;6.60;;;;;;;;;;1710047;81;21096;-48
2022/12/08 06:59:25;;;;;;;11.50;7.23;;;;;;;;;;1709073;81;20971;-48
2022/12/08 07:01:51;;;;;;;9.90;7.57;;;;;;;;;;1709464;81;20990;-48
2022/12/08 07:04:17;;;;;;;7.80;6.03;;;;;;;;;;1714222;81;21042;-48
2022/12/08 07:06:43;;;;;;;9.00;7.10;;;;;;;;;;1715939;81;21088;-49
2022/12/08 07:09:09;;;;;;;10.00;7.17;;;;;;;;;;1714969;81;22527;-49
2022/12/08 07:11:37;;;;;;;7.10;6.03;;;;;;;;;;1711258;81;21857;-49
2022/12/08 07:14:03;;;;;;;6.87;5.50;;;;;;;;;;1707054;81;21061;-48
2022/12/08 07:16:29;;;;;;;6.97;5.27;;;;;;;;;;1708125;81;21073;-48
2022/12/08 07:18:55;;;;;;;5.60;5.10;;;;;;;;;;1709469;81;21088;-47
2022/12/08 07:21:21;;;;;;;6.40;5.53;;;;;;;;;;1709048;81;21390;-48
2022/12/08 07:23:48;;;;;;;6.57;5.63;;;;;;;;;;1709506;81;21966;-47
2022/12/08 07:26:15;;;;;;;8.10;6.60;;;;;;;;;;1712787;81;21042;-47
2022/12/08 07:28:41;;;;;;;8.63;6.90;;;;;;;;;;1715533;81;22097;-47
2022/12/08 07:31:09;;;;;;;9.20;6.50;;;;;;;;;;1708830;81;21469;-47
2022/12/08 07:33:36;;;;;;;8.13;6.60;;;;;;;;;;1707678;81;21069;-47
2022/12/08 07:36:03;;;;;;;7.40;6.07;;;;;;;;;;1716551;81;21830;-47
2022/12/08 07:38:30;;;;;;;9.37;7.03;;;;;;;;;;1712373;81;21077;-47
2022/12/08 07:40:56;;;;;;;9.53;7.20;;;;;;;;;;1708658;81;21041;-47
2022/12/08 07:43:22;;;;;;;12.50;9.10;;;;;;;;;;1706803;82;21064;-47
2022/12/08 07:45:49;;;;;;;11.70;8.17;;;;;;;;;;1707471;81;21084;-47
2022/12/08 07:48:15;;;;;;;15.17;11.07;;;;;;;;;;1708119;81;21316;-47
2022/12/08 07:50:42;;;;;;;15.30;9.93;;;;;;;;;;1667183;83;21561;-48
2022/12/08 07:53:08;;;;;;;14.70;9.00;;;;;;;;;;1707095;81;21060;-47
2022/12/08 07:55:39;;;;;;;11.20;8.80;;;;;;;;;;1714300;81;21049;-47
2022/12/08 07:58:06;;;;;;;12.97;9.07;;;;;;;;;;1711233;81;21045;-47
2022/12/08 08:00:32;;;;;;;10.23;8.23;;;;;;;;;;1713138;81;21900;-48
2022/12/08 08:02:58;;;;;;;9.97;8.03;;;;;;;;;;1706461;81;21049;-48
2022/12/08 08:05:25;;;;;;;10.77;7.73;;;;;;;;;;1707049;81;21068;-48
2022/12/08 08:07:51;;;;;;;13.23;9.67;;;;;;;;;;1709575;81;21050;-48
2022/12/08 08:10:17;;;;;;;13.00;9.10;;;;;;;;;;1709329;81;21101;-48
2022/12/08 08:12:44;;;;;;;14.17;8.90;;;;;;;;;;1708896;82;21846;-47
2022/12/08 08:15:10;;;;;;;16.80;9.67;;;;;;;;;;1703218;81;21297;-47
2022/12/08 08:17:36;;;;;;;15.83;11.53;;;;;;;;;;1708868;81;21524;-47
2022/12/08 08:20:05;;;;;;;12.93;9.30;;;;;;;;;;1711005;81;21155;-47
2022/12/08 08:22:32;;;;;;;14.57;11.37;;;;;;;;;;1708812;81;21065;-47
2022/12/08 08:24:58;;;;;;;14.03;10.43;;;;;;;;;;1704930;81;22484;-47
2022/12/08 08:27:25;;;;;;;14.13;10.63;;;;;;;;;;1703853;81;21570;-48
2022/12/08 08:29:52;;;;;;;14.77;10.57;;;;;;;;;;1707218;81;21608;-48
2022/12/08 08:32:20;;;;;;;33.90;20.43;;;;;;;;;;1708754;82;22179;-47
2022/12/08 08:34:46;;;;;;;40.00;27.83;;;;;;;;;;1705725;81;21067;-48
2022/12/08 08:37:12;;;;;;;33.60;21.43;;;;;;;;;;1704739;81;21950;-48
2022/12/08 08:39:38;;;;;;;31.10;20.90;;;;;;;;;;1703845;82;21167;-48
2022/12/08 08:42:05;;;;;;;27.23;16.70;;;;;;;;;;1697101;82;21633;-48
2022/12/08 08:44:31;;;;;;;23.67;15.07;;;;;;;;;;1699112;82;21078;-48
2022/12/08 08:46:57;;;;;;;19.40;15.03;;;;;;;;;;1696819;82;21067;-48
2022/12/08 08:49:23;;;;;;;19.00;13.67;;;;;;;;;;1692622;82;22468;-48
2022/12/08 08:51:50;;;;;;;19.53;12.97;;;;;;;;;;1697371;82;21671;-48
2022/12/08 08:56:51;;;;;;;21.40;13.67;;;;;;;;;;1794400;78;27278;-48
2022/12/08 08:59:17;;;;;;;14.23;9.13;;;;;;;;;;1776109;79;21704;-48
2022/12/08 09:01:43;;;;;;;13.97;9.37;;;;;;;;;;1771749;78;21822;-48
2022/12/08 09:04:11;;;;;;;13.73;8.40;;;;;;;;;;1773264;78;21068;-48
2022/12/08 09:06:38;;;;;;;10.03;7.47;;;;;;;;;;1775614;78;21045;-48
2022/12/08 09:09:04;;;;;;;14.67;9.80;;;;;;;;;;1775792;80;21276;-48
2022/12/08 09:11:32;;;;;;;13.43;9.50;;;;;;;;;;1775610;79;21317;-48
2022/12/08 09:13:58;;;;;;;14.97;10.07;;;;;;;;;;1769537;79;21845;-48
2022/12/08 09:16:24;;;;;;;11.83;8.87;;;;;;;;;;1775888;79;21041;-48
2022/12/08 09:18:50;;;;;;;10.23;7.60;;;;;;;;;;1770694;79;21597;-48
2022/12/08 09:21:21;;;;;;;12.03;9.43;;;;;;;;;;1771519;78;21076;-48
2022/12/08 09:23:55;;;;;;;13.37;9.67;;;;;;;;;;1784149;78;20985;-48
2022/12/08 09:26:21;;;;;;;16.40;9.93;;;;;;;;;;1783764;78;21741;-48
2022/12/08 09:28:49;;;;;;;68.70;33.67;;;;;;;;;;1785943;79;21002;-48
2022/12/08 09:31:16;;;;;;;50.17;24.80;;;;;;;;;;1782658;78;21642;-48
2022/12/08 09:33:42;;;;;;;35.07;20.50;;;;;;;;;;1784470;79;22052;-48
2022/12/08 09:36:09;;;;;;;23.73;12.93;;;;;;;;;;1782324;78;20997;-48
2022/12/08 09:38:35;;;;;;;22.63;12.70;;;;;;;;;;1783691;78;21816;-48
2022/12/08 09:41:02;;;;;;;21.67;12.23;;;;;;;;;;1785170;78;20973;-48
2022/12/08 09:43:59;;;;;;;21.83;13.73;;;;;;;;;;1786237;78;21457;-48
2022/12/08 09:46:26;;;;;;;25.23;14.37;;;;;;;;;;1784406;79;21509;-48
2022/12/08 09:48:57;;;;;;;23.07;13.73;;;;;;;;;;1782873;78;21557;-48
2022/12/08 09:51:24;;;;;;;24.20;12.17;;;;;;;;;;1780425;78;21793;-48
2022/12/08 09:54:06;;;;;;;22.20;12.67;;;;;;;;;;1784156;78;21918;-48
2022/12/08 09:56:34;;;;;;;23.47;14.10;;;;;;;;;;1758388;79;21033;-48
2022/12/08 09:59:27;;;;;;;26.97;13.03;;;;;;;;;;1748194;80;20981;-48
2022/12/08 10:01:53;;;;;;;28.93;15.83;;;;;;;;;;1718199;80;20966;-48
2022/12/08 10:04:25;;;;;;;31.27;17.03;;;;;;;;;;1750897;80;21745;-48
2022/12/08 10:07:07;;;;;;;25.63;14.23;;;;;;;;;;1746416;80;21061;-48
2022/12/08 10:09:46;;;;;;;24.97;14.03;;;;;;;;;;1743763;80;20970;-48
2022/12/08 10:12:28;;;;;;;27.30;14.33;;;;;;;;;;1713805;82;21111;-48
2022/12/08 10:15:04;;;;;;;21.07;12.20;;;;;;;;;;1709171;82;21149;-48
2022/12/08 10:17:33;;;;;;;20.23;10.77;;;;;;;;;;1681878;83;21843;-48
2022/12/08 10:20:19;;;;;;;17.63;10.57;;;;;;;;;;1688733;83;21296;-49
2022/12/08 10:22:46;;;;;;;17.57;9.97;;;;;;;;;;1710840;82;21065;-49
2022/12/08 10:25:19;;;;;;;17.50;9.33;;;;;;;;;;1680594;83;21115;-49
2022/12/08 10:27:50;;;;;;;18.77;10.00;;;;;;;;;;1682893;83;21644;-49
2022/12/08 10:30:18;;;;;;;16.43;9.53;;;;;;;;;;1682017;83;21373;-49
2022/12/08 10:32:45;;;;;;;28.43;13.77;;;;;;;;;;1675340;83;21126;-48
2022/12/08 10:35:13;;;;;;;22.27;12.23;;;;;;;;;;1698344;82;21040;-48
2022/12/08 10:37:41;;;;;;;24.57;11.27;;;;;;;;;;1676943;83;21075;-49
2022/12/08 10:40:12;;;;;;;23.00;12.70;;;;;;;;;;1708355;82;21060;-49
2022/12/08 10:42:41;;;;;;;26.87;13.07;;;;;;;;;;1676290;83;22129;-48
2022/12/08 10:45:19;;;;;;;27.10;13.70;;;;;;;;;;1682547;83;21045;-48
2022/12/08 10:47:49;;;;;;;21.93;11.37;;;;;;;;;;1683730;83;21091;-48
2022/12/08 10:50:30;;;;;;;18.87;10.33;;;;;;;;;;1683020;83;21080;-48
2022/12/08 10:53:03;;;;;;;27.80;15.03;;;;;;;;;;1708107;82;21350;-49
2022/12/08 10:55:32;;;;;;;29.03;15.80;;;;;;;;;;1682677;83;21835;-49
2022/12/08 10:57:58;;;;;;;41.80;23.23;;;;;;;;;;1684560;83;21070;-48
2022/12/08 11:00:25;;;;;;;52.70;30.60;;;;;;;;;;1707082;82;21722;-49
2022/12/08 11:02:54;;;;;;;34.70;18.20;;;;;;;;;;1707395;82;21150;-49
2022/12/08 11:05:21;;;;;;;34.47;18.80;;;;;;;;;;1707398;82;21094;-49
2022/12/08 11:07:50;;;;;;;24.73;13.83;;;;;;;;;;1735822;80;21849;-49
2022/12/08 11:10:18;;;;;;;18.93;11.27;;;;;;;;;;1709684;82;21039;-49
2022/12/08 11:15:14;;;;;;;23.33;11.57;;;;;;;;;;1774416;78;27367;-50
2022/12/08 11:17:43;;;;;;;21.00;10.77;;;;;;;;;;1746617;80;21080;-53
2022/12/08 11:20:13;;;;;;;16.03;9.23;;;;;;;;;;1746292;80;22455;-47
2022/12/08 11:22:42;;;;;;;14.13;8.07;;;;;;;;;;1710708;81;21088;-48
2022/12/08 11:25:17;;;;;;;18.63;11.47;;;;;;;;;;1700542;81;21133;-48
2022/12/08 11:27:46;;;;;;;11.97;8.53;;;;;;;;;;1710560;81;21540;-48
2022/12/08 11:30:19;;;;;;;18.37;9.73;;;;;;;;;;1716397;81;21303;-48
2022/12/08 11:32:48;;;;;;;19.63;10.07;;;;;;;;;;1708095;81;21839;-48
2022/12/08 11:35:24;;;;;;;16.20;8.80;;;;;;;;;;1678615;83;21140;-48
2022/12/08 11:37:50;;;;;;;19.60;10.63;;;;;;;;;;1679400;83;21015;-49
2022/12/08 11:40:19;;;;;;;24.73;14.63;;;;;;;;;;1648937;85;21079;-49
2022/12/08 11:43:07;;;;;;;28.50;17.90;;;;;;;;;;1682961;83;21107;-49
2022/12/08 11:45:34;;;;;;;16.73;10.13;;;;;;;;;;1663378;84;21878;-49
2022/12/08 11:48:04;;;;;;;14.13;8.27;;;;;;;;;;1660079;84;22277;-49
2022/12/08 11:50:49;;;;;;;31.13;18.63;;;;;;;;;;1668417;84;21107;-49
2022/12/08 11:53:20;;;;;;;;;;;;;;;;;;1666490;84;21104;-49
2022/12/08 11:55:50;;;;;;;11.70;7.23;;;;;;;;;;1663052;84;20180;-49
2022/12/08 11:58:19;;;;;;;13.10;6.23;;;;;;;;;;1663819;84;22008;-50
2022/12/08 12:00:46;;;;;;;11.20;6.93;;;;;;;;;;1659433;84;21132;-49
2022/12/08 12:03:36;;;;;;;12.20;7.30;;;;;;;;;;1654183;84;21087;-49
2022/12/08 12:06:09;;;;;;;9.07;6.03;;;;;;;;;;1659177;84;22616;-49
2022/12/08 12:09:03;;;;;;;10.57;5.63;;;;;;;;;;1664946;84;21091;-49
2022/12/08 12:12:54;;;;;;;10.72;6.95;;;;;;;;;;1661504;84;21868;-49
2022/12/08 12:14:47;;;;;;;17.00;10.07;;;;;;;;;;1634871;83;21126;-50
2022/12/08 12:17:35;;;;;;;17.53;8.90;;;;;;;;;;1659222;84;21115;-49
2022/12/08 12:20:03;;;;;;;20.17;11.33;;;;;;;;;;1655968;84;21576;-48
2022/12/08 12:22:32;;;;;;;12.33;7.77;;;;;;;;;;1621920;86;21184;-49
2022/12/08 12:24:58;;;;;;;12.17;7.47;;;;;;;;;;1660128;84;21841;-49
2022/12/08 12:27:35;;;;;;;12.33;7.60;;;;;;;;;;1628679;86;21129;-49
2022/12/08 12:30:03;;;;;;;13.57;7.87;;;;;;;;;;1653209;84;21679;-49
2022/12/08 12:32:51;;;;;;;13.17;7.13;;;;;;;;;;1633080;84;21317;-49
2022/12/08 12:35:23;;;;;;;13.33;8.33;;;;;;;;;;1594317;87;21100;-49
2022/12/08 12:37:49;;;;;;;14.03;7.77;;;;;;;;;;1598962;87;21898;-49
2022/12/08 12:40:18;;;;;;;18.30;10.27;;;;;;;;;;1623633;86;21093;-49
2022/12/08 12:42:55;;;;;;;15.03;9.43;;;;;;;;;;1657365;84;21021;-49
2022/12/08 12:45:30;;;;;;;9.00;6.07;;;;;;;;;;1587635;87;21027;-49
2022/12/08 12:48:00;;;;;;;15.18;9.15;;;;;;;;;;1625938;86;21039;-49
2022/12/08 12:50:36;;;;;;;11.83;7.27;;;;;;;;;;1657768;84;21826;-49
2022/12/08 12:53:07;;;;;;;14.07;9.17;;;;;;;;;;1660820;84;21002;-49
2022/12/08 12:55:46;;;;;;;16.10;8.80;;;;;;;;;;1654583;84;21527;-50
2022/12/08 12:58:24;;;;;;;12.93;9.03;;;;;;;;;;1597965;87;21873;-49
2022/12/08 13:00:50;;;;;;;13.27;7.90;;;;;;;;;;1657724;84;21045;-49
2022/12/08 13:03:16;;;;;;;19.17;9.93;;;;;;;;;;1611555;84;23098;-50
2022/12/08 13:05:50;;;;;;;12.87;8.23;;;;;;;;;;1653305;84;21513;-49
2022/12/08 13:08:23;;;;;;;16.67;10.18;;;;;;;;;;1594461;87;21079;-50
2022/12/08 13:11:07;;;;;;;20.27;11.33;;;;;;;;;;1655127;84;21059;-49
2022/12/08 13:13:35;;;;;;;20.97;11.23;;;;;;;;;;1624190;85;21031;-50
2022/12/08 13:16:12;;;;;;;13.13;8.27;;;;;;;;;;1705124;82;21724;-49
2022/12/08 13:18:40;;;;;;;12.03;7.37;;;;;;;;;;1705619;82;21685;-50
2022/12/08 13:21:13;;;;;;;15.03;9.03;;;;;;;;;;1674953;83;21053;-49
2022/12/08 13:23:47;;;;;;;13.90;8.08;;;;;;;;;;1643311;85;21395;-49
2022/12/08 13:26:19;;;;;;;13.17;9.10;;;;;;;;;;1669322;83;21105;-49
2022/12/08 13:29:02;;;;;;;9.73;6.17;;;;;;;;;;1672173;83;21857;-49
2022/12/08 13:31:52;;;;;;;10.60;6.63;;;;;;;;;;1672315;83;21083;-50
2022/12/08 13:34:28;;;;;;;13.47;7.23;;;;;;;;;;1672686;83;21621;-50
2022/12/08 13:37:13;;;;;;;12.50;6.60;;;;;;;;;;1669652;83;21021;-50
2022/12/08 13:39:57;;;;;;;14.93;8.07;;;;;;;;;;1674357;83;21033;-50
2022/12/08 13:42:45;;;;;;;8.60;6.43;;;;;;;;;;1677431;83;21785;-50
2022/12/08 13:45:15;;;;;;;12.77;7.80;;;;;;;;;;1637655;85;21575;-50
2022/12/08 13:47:56;;;;;;;13.77;8.63;;;;;;;;;;1648117;85;21069;-49
2022/12/08 13:50:35;;;;;;;10.97;7.03;;;;;;;;;;1669645;83;21090;-50
2022/12/08 13:53:11;;;;;;;13.53;7.93;;;;;;;;;;1647849;85;21348;-49
2022/12/08 13:55:43;;;;;;;17.73;10.77;;;;;;;;;;1649746;85;21782;-50
2022/12/08 13:58:18;;;;;;;12.87;8.43;;;;;;;;;;1671149;83;21404;-50
2022/12/08 14:00:57;;;;;;;7.30;4.90;;;;;;;;;;1653032;84;21048;-50
2022/12/08 14:03:23;;;;;;;7.80;5.17;;;;;;;;;;1685757;82;21211;-50
2022/12/08 14:05:49;;;;;;;9.90;4.80;;;;;;;;;;1683375;83;21041;-50
2022/12/08 14:08:19;;;;;;;4.10;3.40;;;;;;;;;;1671668;83;21789;-50
2022/12/08 14:10:48;;;;;;;8.87;4.60;;;;;;;;;;1642391;85;21528;-50
2022/12/08 14:13:14;;;;;;;6.77;4.60;;;;;;;;;;1702359;82;21069;-50
2022/12/08 14:15:40;;;;;;;7.87;5.30;;;;;;;;;;1712584;82;21112;-50
2022/12/08 14:18:10;;;;;;;8.00;4.20;;;;;;;;;;1703660;82;21164;-50
2022/12/08 14:20:36;;;;;;;7.70;5.07;;;;;;;;;;1698715;82;21816;-50
2022/12/08 14:23:05;;;;;;;6.37;4.03;;;;;;;;;;1701574;82;21355;-50
2022/12/08 14:25:31;;;;;;;7.90;4.90;;;;;;;;;;1704552;82;21057;-50
2022/12/08 14:28:00;;;;;;;8.30;5.53;;;;;;;;;;1697683;82;21065;-50
2022/12/08 14:30:32;;;;;;;8.93;5.57;;;;;;;;;;1705800;82;21050;-49
2022/12/08 14:32:59;;;;;;;7.37;4.87;;;;;;;;;;1707139;82;22285;-50
2022/12/08 14:35:27;;;;;;;12.30;6.57;;;;;;;;;;1702900;82;21097;-50
2022/12/08 14:37:57;;;;;;;13.10;7.90;;;;;;;;;;1710693;82;21351;-50
2022/12/08 14:40:26;;;;;;;14.50;8.30;;;;;;;;;;1704325;82;21143;-50
2022/12/08 14:42:55;;;;;;;12.00;6.93;;;;;;;;;;1707054;82;21069;-50
2022/12/08 14:45:21;;;;;;;11.93;7.33;;;;;;;;;;1699511;82;22030;-50
2022/12/08 14:47:47;;;;;;;10.90;7.03;;;;;;;;;;1701662;82;21473;-50
2022/12/08 14:50:34;;;;;;;8.63;6.10;;;;;;;;;;1707410;82;21122;-50
2022/12/08 14:53:00;;;;;;;17.93;10.83;;;;;;;;;;1684201;83;21084;-50
2022/12/08 14:55:28;;;;;;;11.00;6.73;;;;;;;;;;1645659;85;22260;-50
2022/12/08 14:57:54;;;;;;;15.57;10.53;;;;;;;;;;1647347;85;21863;-50
2022/12/08 15:00:21;;;;;;;11.43;7.60;;;;;;;;;;1652271;85;21398;-50
2022/12/08 15:02:47;;;;;;;11.37;7.37;;;;;;;;;;1676352;83;21089;-50
2022/12/08 15:05:16;;;;;;;25.57;15.73;;;;;;;;;;1672601;83;21069;-50
2022/12/08 15:07:51;;;;;;;15.60;9.97;;;;;;;;;;1680044;83;21112;-50